createdAt,value
2023-05-02T07:36:47.600Z,500.00
2023-05-02T07:37:47.560Z,500.00
2023-05-02T07:38:47.410Z,500.00
2023-05-02T07:39:47.338Z,500.00
2023-05-02T07:40:47.261Z,500.00
2023-05-02T07:41:47.158Z,400.00
2023-05-02T07:42:46.988Z,400.00
2023-05-02T07:43:46.872Z,400.00
2023-05-02T07:44:46.716Z,400.00
2023-05-02T07:45:46.614Z,400.00
2023-05-02T07:46:46.520Z,400.00
2023-05-02T07:47:46.374Z,400.00
2023-05-02T07:48:46.191Z,400.00
2023-05-02T07:49:46.010Z,400.00
2023-05-02T07:50:45.852Z,400.00
2023-05-02T07:51:45.760Z,400.00
2023-05-02T07:52:45.584Z,400.00
2023-05-02T07:53:45.448Z,400.00
2023-05-02T07:54:45.322Z,400.00
2023-05-02T07:55:45.342Z,400.00
2023-05-02T07:56:45.163Z,400.00
2023-05-02T07:57:45.133Z,400.00
2023-05-02T07:58:45.041Z,400.00
2023-05-02T07:59:44.943Z,400.00
2023-05-02T08:00:44.855Z,400.00
2023-05-02T08:01:44.795Z,400.00
2023-05-02T08:02:44.802Z,400.00
2023-05-02T08:03:44.945Z,400.00
2023-05-02T08:04:44.594Z,400.00
2023-05-02T08:05:44.460Z,400.00
2023-05-02T08:06:44.423Z,400.00
2023-05-02T08:07:44.307Z,400.00
2023-05-02T08:08:44.217Z,400.00
2023-05-02T08:09:44.079Z,400.00
2023-05-02T08:10:43.921Z,400.00
2023-05-02T08:11:43.760Z,400.00
2023-05-02T08:12:43.652Z,400.00
2023-05-02T08:13:43.466Z,400.00
2023-05-02T08:14:43.331Z,400.00
2023-05-02T08:15:43.238Z,400.00
2023-05-02T08:16:44.837Z,400.00
2023-05-02T08:17:42.943Z,400.00
2023-05-02T08:18:42.800Z,400.00
2023-05-02T08:19:42.630Z,400.00
2023-05-02T08:20:42.588Z,400.00
2023-05-02T08:21:42.391Z,400.00
2023-05-02T08:22:42.233Z,400.00
2023-05-02T08:23:42.106Z,400.00
2023-05-02T08:24:41.960Z,400.00
2023-05-02T08:25:41.806Z,400.00
2023-05-02T08:26:41.741Z,400.00
2023-05-02T08:27:41.571Z,400.00
2023-05-02T08:28:41.375Z,400.00
2023-05-02T08:29:41.257Z,400.00
2023-05-02T08:30:41.169Z,400.00
2023-05-02T08:31:41.076Z,400.00
2023-05-02T08:32:40.925Z,400.00
2023-05-02T08:33:40.740Z,400.00
2023-05-02T08:34:40.589Z,400.00
2023-05-02T08:35:40.603Z,400.00
2023-05-02T08:36:40.370Z,400.00
2023-05-02T08:37:40.174Z,400.00
2023-05-02T08:38:40.017Z,400.00
2023-05-02T11:29:53.752Z,500.00
2023-05-02T11:30:54.895Z,500.00
2023-05-02T11:31:53.601Z,500.00
2023-05-02T11:32:53.542Z,500.00
2023-05-02T11:33:53.362Z,500.00
2023-05-02T11:34:53.235Z,500.00
2023-05-02T11:35:53.106Z,500.00
2023-05-02T11:36:53.009Z,443.00
2023-05-02T11:37:52.909Z,400.00
2023-05-02T11:38:52.863Z,400.00
2023-05-02T11:39:52.697Z,400.00
2023-05-02T11:40:52.489Z,400.00
2023-05-02T11:41:52.362Z,400.00
2023-05-02T11:42:52.227Z,400.00
2023-05-02T11:43:52.092Z,400.00
2023-05-02T11:44:51.930Z,400.00
2023-05-02T11:45:51.827Z,400.00
2023-05-02T11:46:51.609Z,400.00
2023-05-02T11:47:51.508Z,400.00
2023-05-02T11:48:51.310Z,400.00
2023-05-02T11:49:51.118Z,400.00
2023-05-02T11:50:51.042Z,400.00
2023-05-02T11:51:50.782Z,400.00
2023-05-02T11:52:50.621Z,400.00
2023-05-02T11:53:50.463Z,415.00
2023-05-02T11:54:50.369Z,465.00
2023-05-02T11:55:50.289Z,503.00
2023-05-02T11:56:50.184Z,502.00
2023-05-02T11:57:50.068Z,500.00
2023-05-02T11:58:49.975Z,509.00
2023-05-02T11:59:49.881Z,503.00
2023-05-02T12:00:49.788Z,500.00
2023-05-02T12:01:49.689Z,504.00
2023-05-02T12:02:49.620Z,500.00
2023-05-02T12:03:49.643Z,501.00
2023-05-02T12:04:49.369Z,504.00
2023-05-02T12:05:49.325Z,501.00
2023-05-02T12:06:49.280Z,512.00
2023-05-02T12:07:49.117Z,508.00
2023-05-02T12:08:49.000Z,504.00
2023-05-02T12:09:48.843Z,502.00
2023-05-02T12:10:48.793Z,507.00
2023-05-02T12:11:48.663Z,506.00
2023-05-02T12:12:48.600Z,500.00
2023-05-02T12:13:48.528Z,509.00
2023-05-02T12:14:48.369Z,505.00
2023-05-02T12:15:48.295Z,506.00
2023-05-02T12:16:48.244Z,506.00
2023-05-02T12:17:47.976Z,502.00
2023-05-02T12:18:47.844Z,501.00
2023-05-02T12:19:47.628Z,492.00
2023-05-02T12:20:47.455Z,495.00
2023-05-02T12:21:47.286Z,500.00
2023-05-02T12:22:47.134Z,508.00
2023-05-02T12:23:46.994Z,508.00
2023-05-02T12:24:46.795Z,509.00
2023-05-02T12:25:46.598Z,503.00
2023-05-02T12:26:46.474Z,495.00
2023-05-02T12:27:46.271Z,495.00
2023-05-02T12:28:46.142Z,490.00
2023-05-02T12:29:45.969Z,500.00
2023-05-02T12:30:45.779Z,500.00
2023-05-02T12:31:45.660Z,497.00
2023-05-02T12:32:45.596Z,500.00
2023-05-02T12:33:45.333Z,493.00
2023-05-02T12:34:45.093Z,486.00
2023-05-02T12:35:44.921Z,478.00
2023-05-02T12:36:44.759Z,481.00
2023-05-02T12:37:45.579Z,512.00
2023-05-02T12:38:44.466Z,504.00
2023-05-02T12:39:44.264Z,502.00
2023-05-02T12:40:44.165Z,501.00
2023-05-02T12:41:44.009Z,504.00
2023-05-02T12:42:43.908Z,509.00
2023-05-02T12:43:43.779Z,506.00
2023-05-02T12:44:43.688Z,508.00
2023-05-02T12:45:43.537Z,506.00
2023-05-02T12:46:43.488Z,502.00
2023-05-02T12:47:43.313Z,501.00
2023-05-02T12:48:44.226Z,508.00
2023-05-02T12:49:43.076Z,506.00
2023-05-02T12:50:42.949Z,507.00
2023-05-02T12:51:42.838Z,504.00
2023-05-02T12:52:42.712Z,504.00
2023-05-02T12:53:42.611Z,501.00
2023-05-02T12:54:43.959Z,506.00
2023-05-02T12:55:42.376Z,500.00
2023-05-02T12:56:42.224Z,505.00
2023-05-02T12:57:42.087Z,502.00
2023-05-02T12:58:42.036Z,502.00
2023-05-02T12:59:41.836Z,507.00
2023-05-02T13:00:41.741Z,502.00
2023-05-02T13:01:41.647Z,505.00
2023-05-02T13:02:41.501Z,506.00
2023-05-02T13:03:41.408Z,503.00
2023-05-02T13:04:41.404Z,501.00
2023-05-02T13:05:41.087Z,501.00
2023-05-02T13:06:40.998Z,500.00
2023-05-02T13:07:40.861Z,502.00
2023-05-02T13:08:40.762Z,504.00
2023-05-02T13:09:40.606Z,500.00
2023-05-02T13:10:40.469Z,508.00
2023-05-02T13:11:40.342Z,509.00
2023-05-02T13:12:40.207Z,506.00
2023-05-02T13:13:40.111Z,510.00
2023-05-02T13:14:40.051Z,506.00
2023-05-02T13:15:39.852Z,504.00
2023-05-02T13:16:39.788Z,506.00
2023-05-02T13:17:39.794Z,504.00
2023-05-02T13:18:39.459Z,504.00
2023-05-02T13:19:44.448Z,503.00
2023-05-02T13:20:40.115Z,503.00
2023-05-02T13:21:38.937Z,504.00
2023-05-02T13:22:38.795Z,503.00
2023-05-02T13:23:38.638Z,505.00
2023-05-02T13:24:38.434Z,503.00
2023-05-02T13:25:38.266Z,504.00
2023-05-02T13:26:38.103Z,504.00
2023-05-02T13:27:37.912Z,502.00
2023-05-02T13:28:37.772Z,495.00
2023-05-02T13:29:37.629Z,503.00
2023-05-02T13:30:37.421Z,505.00
2023-05-02T13:31:37.388Z,509.00
2023-05-02T13:32:37.089Z,503.00
2023-05-02T13:33:36.928Z,505.00
2023-05-02T13:34:36.785Z,505.00
2023-05-02T13:35:36.579Z,506.00
2023-05-02T13:36:36.365Z,502.00
2023-05-02T13:37:36.216Z,504.00
2023-05-02T13:38:36.035Z,501.00
2023-05-02T13:39:35.869Z,503.00
2023-05-02T13:40:35.684Z,503.00
2023-05-02T13:41:35.501Z,508.00
2023-05-02T13:42:35.302Z,505.00
2023-05-02T13:43:35.141Z,507.00
2023-05-02T13:44:34.986Z,509.00
2023-05-02T13:45:34.872Z,502.00
2023-05-02T13:46:34.730Z,505.00
2023-05-02T13:47:34.612Z,505.00
2023-05-02T13:48:34.396Z,505.00
2023-05-02T13:49:34.263Z,504.00
2023-05-02T13:50:34.162Z,505.00
2023-05-02T13:51:33.979Z,505.00
2023-05-02T13:52:33.817Z,504.00
2023-05-02T13:53:33.693Z,506.00
2023-05-02T13:54:33.548Z,504.00
2023-05-02T13:55:33.420Z,502.00
2023-05-02T13:56:33.284Z,504.00
2023-05-02T13:57:33.163Z,503.00
2023-05-02T13:58:33.023Z,500.00
2023-05-02T13:59:32.896Z,506.00
2023-05-02T14:00:32.915Z,504.00
2023-05-02T14:01:32.658Z,503.00
2023-05-02T14:02:32.557Z,503.00
2023-05-02T14:03:32.401Z,501.00
2023-05-02T14:04:32.222Z,509.00
2023-05-02T14:05:32.070Z,502.00
2023-05-02T14:06:31.962Z,504.00
2023-05-02T14:07:31.754Z,506.00
2023-05-02T14:08:31.638Z,502.00
2023-05-02T14:09:31.508Z,507.00
2023-05-02T14:10:31.356Z,503.00
2023-05-02T14:11:31.245Z,507.00
2023-05-02T14:12:31.137Z,510.00
2023-05-02T14:13:30.933Z,507.00
2023-05-02T14:14:30.835Z,508.00
2023-05-02T14:15:30.687Z,506.00
2023-05-02T14:16:30.646Z,507.00
2023-05-02T14:17:30.438Z,507.00
2023-05-02T14:18:30.282Z,509.00
2023-05-02T14:19:30.158Z,509.00
2023-05-02T14:20:30.019Z,504.00
2023-05-02T14:21:29.909Z,505.00
2023-05-02T14:22:29.766Z,505.00
2023-05-02T14:23:29.627Z,505.00
2023-05-02T14:24:29.506Z,504.00
2023-05-02T14:25:29.385Z,505.00
2023-05-02T14:26:29.245Z,500.00
2023-05-02T14:27:29.108Z,503.00
2023-05-02T14:28:28.960Z,504.00
2023-05-02T14:29:28.840Z,512.00
2023-05-02T14:30:28.701Z,508.00
2023-05-02T14:31:28.625Z,507.00
2023-05-02T14:32:28.438Z,505.00
2023-05-02T14:33:28.294Z,503.00
2023-05-02T14:34:28.175Z,506.00
2023-05-02T14:35:28.006Z,507.00
2023-05-02T14:36:27.860Z,502.00
2023-05-02T14:37:27.711Z,508.00
2023-05-02T14:38:27.579Z,509.00
2023-05-02T14:39:27.460Z,508.00
2023-05-02T14:40:27.318Z,507.00
2023-05-02T14:41:27.189Z,510.00
2023-05-02T14:42:27.060Z,510.00
2023-05-02T14:43:26.926Z,508.00
2023-05-02T14:44:26.801Z,509.00
2023-05-02T14:45:26.636Z,510.00
2023-05-02T14:46:26.599Z,502.00
2023-05-02T14:47:26.375Z,503.00
2023-05-02T14:48:26.241Z,509.00
2023-05-02T14:49:26.146Z,505.00
2023-05-02T14:50:25.991Z,504.00
2023-05-02T14:51:25.849Z,505.00
2023-05-02T14:52:25.754Z,504.00
2023-05-02T14:53:25.603Z,509.00
2023-05-02T14:54:25.463Z,505.00
2023-05-02T14:55:25.326Z,503.00
2023-05-02T14:56:25.210Z,508.00
2023-05-02T14:57:25.166Z,508.00
2023-05-02T14:58:24.938Z,500.00
2023-05-02T14:59:24.860Z,503.00
2023-05-02T15:00:24.681Z,509.00
2023-05-02T15:01:24.571Z,515.00
2023-05-02T15:02:24.537Z,510.00
2023-05-02T15:03:24.447Z,511.00
2023-05-02T15:04:24.333Z,508.00
2023-05-02T15:05:24.039Z,504.00
2023-05-02T15:06:23.942Z,508.00
2023-05-02T15:07:23.909Z,508.00
2023-05-02T15:08:23.633Z,506.00
2023-05-02T15:09:23.503Z,504.00
2023-05-02T15:10:23.358Z,505.00
2023-05-02T15:11:23.258Z,509.00
2023-05-02T15:12:23.079Z,507.00
2023-05-02T15:13:22.935Z,509.00
2023-05-02T15:14:22.787Z,507.00
2023-05-02T15:15:22.654Z,506.00
2023-05-02T15:16:22.549Z,505.00
2023-05-02T15:17:22.372Z,506.00
2023-05-02T15:18:22.342Z,506.00
2023-05-02T15:19:22.140Z,504.00
2023-05-02T15:20:21.995Z,506.00
2023-05-02T15:21:21.886Z,505.00
2023-05-02T15:22:21.720Z,505.00
2023-05-02T15:23:21.604Z,508.00
2023-05-02T15:24:21.483Z,508.00
2023-05-02T15:25:21.329Z,503.00
2023-05-02T15:26:21.212Z,511.00
2023-05-02T15:27:21.059Z,506.00
2023-05-02T15:28:20.924Z,509.00
2023-05-02T15:29:20.801Z,508.00
2023-05-02T15:30:23.312Z,504.00
2023-05-02T15:31:20.523Z,508.00
2023-05-02T15:32:20.339Z,508.00
2023-05-02T15:33:20.116Z,509.00
2023-05-02T15:34:19.978Z,511.00
2023-05-02T15:35:19.780Z,506.00
2023-05-02T15:36:19.657Z,502.00
2023-05-02T15:37:19.446Z,505.00
2023-05-02T15:38:19.292Z,506.00
2023-05-02T15:39:19.133Z,508.00
2023-05-02T15:40:18.939Z,511.00
2023-05-02T15:41:18.773Z,500.00
2023-05-02T15:42:18.609Z,508.00
2023-05-02T15:43:18.458Z,504.00
2023-05-02T15:44:18.292Z,501.00
2023-05-02T15:45:18.112Z,506.00
2023-05-02T15:46:17.954Z,502.00
2023-05-02T15:47:19.505Z,510.00
2023-05-02T15:48:17.582Z,510.00
2023-05-02T15:49:17.425Z,510.00
2023-05-02T15:50:17.262Z,510.00
2023-05-02T15:51:17.122Z,505.00
2023-05-02T15:52:16.927Z,508.00
2023-05-02T15:53:16.737Z,505.00
2023-05-02T15:54:16.585Z,509.00
2023-05-02T15:55:16.396Z,501.00
2023-05-02T15:56:16.264Z,506.00
2023-05-02T15:57:16.074Z,507.00
2023-05-02T15:58:15.892Z,502.00
2023-05-02T15:59:15.739Z,506.00
2023-05-02T16:00:15.548Z,507.00
2023-05-02T16:01:15.442Z,505.00
2023-05-02T16:02:15.218Z,503.00
2023-05-02T16:03:15.103Z,505.00
2023-05-02T16:04:14.928Z,499.00
2023-05-02T16:05:14.716Z,505.00
2023-05-02T16:06:14.575Z,506.00
2023-05-02T16:07:14.393Z,508.00
2023-05-02T16:08:14.225Z,510.00
2023-05-02T16:09:14.074Z,507.00
2023-05-02T16:10:13.888Z,512.00
2023-05-02T16:11:13.738Z,504.00
2023-05-02T16:12:13.584Z,506.00
2023-05-02T16:13:13.368Z,507.00
2023-05-02T16:14:13.201Z,508.00
2023-05-02T16:15:13.027Z,511.00
2023-05-02T16:16:12.895Z,512.00
2023-05-02T16:17:12.689Z,510.00
2023-05-02T16:18:12.588Z,502.00
2023-05-02T16:19:12.360Z,510.00
2023-05-02T16:20:14.002Z,511.00
2023-05-02T16:21:12.020Z,511.00
2023-05-02T16:22:11.837Z,506.00
2023-05-02T16:23:11.661Z,504.00
2023-05-02T16:24:11.495Z,504.00
2023-05-02T16:25:11.330Z,510.00
2023-05-02T16:26:11.187Z,512.00
2023-05-02T16:27:10.998Z,507.00
2023-05-02T16:28:10.838Z,504.00
2023-05-02T16:29:10.709Z,510.00
2023-05-02T16:30:10.478Z,505.00
2023-05-02T16:31:10.334Z,508.00
2023-05-02T16:32:10.144Z,506.00
2023-05-02T16:33:10.039Z,509.00
2023-05-02T16:34:09.818Z,505.00
2023-05-02T16:35:09.620Z,511.00
2023-05-02T16:36:09.494Z,510.00
2023-05-02T16:37:09.362Z,505.00
2023-05-02T16:38:09.232Z,511.00
2023-05-02T16:39:09.147Z,508.00
2023-05-02T16:40:09.001Z,511.00
2023-05-02T16:41:08.890Z,514.00
2023-05-02T16:42:08.774Z,511.00
2023-05-02T16:43:08.668Z,506.00
2023-05-02T16:44:08.577Z,504.00
2023-05-02T16:45:08.410Z,503.00
2023-05-02T16:46:08.293Z,510.00
2023-05-02T16:47:08.243Z,508.00
2023-05-02T16:48:08.096Z,511.00
2023-05-02T16:49:07.977Z,512.00
2023-05-02T16:50:07.803Z,511.00
2023-05-02T16:51:07.683Z,508.00
2023-05-02T16:52:07.555Z,511.00
2023-05-02T16:53:07.419Z,510.00
2023-05-02T16:54:07.301Z,509.00
2023-05-02T16:55:07.199Z,513.00
2023-05-02T16:56:07.029Z,514.00
2023-05-02T16:57:06.837Z,507.00
2023-05-02T16:58:06.685Z,510.00
2023-05-02T16:59:06.536Z,514.00
2023-05-02T17:00:06.591Z,508.00
2023-05-02T17:01:06.204Z,508.00
2023-05-02T17:02:06.021Z,512.00
2023-05-02T17:03:06.093Z,512.00
2023-05-02T17:04:05.669Z,510.00
2023-05-02T17:05:05.523Z,506.00
2023-05-02T17:06:05.396Z,506.00
2023-05-02T17:07:05.170Z,504.00
2023-05-02T17:08:05.011Z,503.00
2023-05-02T17:09:04.855Z,505.00
2023-05-02T17:10:05.238Z,510.00
2023-05-02T17:11:04.612Z,510.00
2023-05-02T17:12:04.486Z,504.00
2023-05-02T17:13:04.339Z,506.00
2023-05-02T17:14:04.243Z,511.00
2023-05-02T17:15:04.392Z,516.00
2023-05-02T17:16:03.966Z,513.00
2023-05-02T17:17:03.960Z,510.00
2023-05-02T17:18:03.777Z,509.00
2023-05-02T17:19:03.620Z,510.00
2023-05-02T17:20:03.745Z,508.00
2023-05-02T17:21:04.067Z,509.00
2023-05-02T17:22:03.278Z,510.00
2023-05-02T17:23:03.170Z,509.00
2023-05-02T17:24:03.044Z,512.00
2023-05-02T17:25:02.956Z,504.00
2023-05-02T17:26:02.824Z,511.00
2023-05-02T17:27:02.721Z,507.00
2023-05-02T17:28:02.626Z,510.00
2023-05-02T17:29:02.497Z,503.00
2023-05-02T17:30:02.543Z,504.00
2023-05-02T17:31:02.325Z,509.00
2023-05-02T17:32:02.135Z,507.00
2023-05-02T17:33:02.091Z,504.00
2023-05-02T17:34:01.919Z,505.00
2023-05-02T17:35:01.784Z,512.00
2023-05-02T17:36:01.666Z,503.00
2023-05-02T17:37:01.543Z,510.00
2023-05-02T17:38:01.410Z,509.00
2023-05-02T17:39:01.290Z,509.00
2023-05-02T17:40:01.298Z,509.00
2023-05-02T17:41:01.031Z,510.00
2023-05-02T17:42:00.795Z,510.00
2023-05-02T17:43:00.636Z,508.00
2023-05-02T17:44:00.460Z,510.00
2023-05-02T17:45:00.320Z,504.00
2023-05-02T17:46:00.221Z,503.00
2023-05-02T17:46:59.968Z,514.00
2023-05-02T17:48:01.919Z,513.00
2023-05-02T17:48:59.633Z,515.00
2023-05-02T17:49:59.464Z,504.00
2023-05-02T17:50:59.291Z,506.00
2023-05-02T17:51:59.126Z,511.00
2023-05-02T17:52:58.969Z,504.00
2023-05-02T17:53:58.796Z,500.00
2023-05-02T17:54:58.646Z,508.00
2023-05-02T17:55:58.487Z,507.00
2023-05-02T17:56:58.304Z,508.00
2023-05-02T17:57:58.137Z,504.00
2023-05-02T17:58:57.969Z,509.00
2023-05-02T17:59:57.823Z,507.00
2023-05-02T18:00:57.636Z,505.00
2023-05-02T18:01:57.520Z,504.00
2023-05-02T18:02:57.452Z,504.00
2023-05-02T18:03:57.213Z,504.00
2023-05-02T18:04:56.991Z,505.00
2023-05-02T18:05:56.828Z,501.00
2023-05-02T18:06:56.725Z,511.00
2023-05-02T18:07:56.501Z,502.00
2023-05-02T18:08:56.354Z,504.00
2023-05-02T18:09:56.243Z,506.00
2023-05-02T18:10:56.052Z,501.00
2023-05-02T18:11:55.872Z,503.00
2023-05-02T18:12:55.712Z,504.00
2023-05-02T18:13:55.556Z,507.00
2023-05-02T18:14:55.415Z,502.00
2023-05-02T18:15:55.271Z,505.00
2023-05-02T18:16:55.060Z,503.00
2023-05-02T18:17:54.935Z,503.00
2023-05-02T18:18:54.746Z,507.00
2023-05-02T18:19:54.583Z,505.00
2023-05-02T18:20:54.414Z,503.00
2023-05-02T18:21:54.253Z,506.00
2023-05-02T18:22:54.099Z,506.00
2023-05-02T18:23:53.916Z,503.00
2023-05-02T18:24:53.799Z,506.00
2023-05-02T18:25:53.602Z,507.00
2023-05-02T18:26:53.450Z,508.00
2023-05-02T18:27:53.280Z,506.00
2023-05-02T18:28:53.184Z,509.00
2023-05-02T18:29:52.964Z,503.00
2023-05-02T18:30:52.875Z,504.00
2023-05-02T18:31:52.841Z,502.00
2023-05-02T18:32:52.672Z,511.00
2023-05-02T18:33:52.535Z,507.00
2023-05-02T18:34:52.448Z,505.00
2023-05-02T18:35:52.353Z,507.00
2023-05-02T18:36:52.243Z,504.00
2023-05-02T18:37:52.133Z,503.00
2023-05-02T18:38:52.064Z,506.00
2023-05-02T18:39:51.970Z,503.00
2023-05-02T18:40:51.856Z,507.00
2023-05-02T18:41:51.764Z,509.00
2023-05-02T18:42:51.661Z,507.00
2023-05-02T18:43:51.552Z,508.00
2023-05-02T18:44:51.451Z,505.00
2023-05-02T18:45:51.366Z,507.00
2023-05-02T18:46:51.279Z,512.00
2023-05-02T18:47:51.235Z,509.00
2023-05-02T18:48:51.016Z,509.00
2023-05-02T18:49:50.930Z,512.00
2023-05-02T18:50:50.838Z,510.00
2023-05-02T18:51:50.730Z,512.00
2023-05-02T18:52:50.650Z,512.00
2023-05-02T18:53:50.546Z,512.00
2023-05-02T18:54:50.469Z,508.00
2023-05-02T18:55:50.360Z,508.00
2023-05-02T18:56:50.259Z,506.00
2023-05-02T18:57:50.167Z,511.00
2023-05-02T18:58:50.076Z,511.00
2023-05-02T18:59:50.033Z,506.00
2023-05-02T19:00:49.892Z,505.00
2023-05-02T19:01:49.835Z,513.00
2023-05-02T19:02:49.777Z,511.00
2023-05-02T19:03:49.709Z,506.00
2023-05-02T19:04:49.503Z,507.00
2023-05-02T19:05:49.417Z,504.00
2023-05-02T19:06:49.367Z,507.00
2023-05-02T19:07:49.203Z,507.00
2023-05-02T19:08:49.094Z,500.00
2023-05-02T19:09:48.993Z,507.00
2023-05-02T19:10:48.888Z,506.00
2023-05-02T19:11:48.786Z,505.00
2023-05-02T19:12:48.688Z,502.00
2023-05-02T19:13:48.579Z,509.00
2023-05-02T19:14:48.496Z,507.00
2023-05-02T19:15:48.442Z,504.00
2023-05-02T19:16:48.286Z,504.00
2023-05-02T19:17:48.221Z,505.00
2023-05-02T19:18:48.093Z,505.00
2023-05-02T19:19:48.019Z,506.00
2023-05-02T19:20:47.920Z,510.00
2023-05-02T19:21:47.803Z,507.00
2023-05-02T19:22:47.686Z,509.00
2023-05-02T19:23:47.593Z,510.00
2023-05-02T19:24:47.521Z,507.00
2023-05-02T19:25:47.394Z,506.00
2023-05-02T19:26:47.279Z,504.00
2023-05-02T19:27:47.174Z,508.00
2023-05-02T19:28:47.125Z,505.00
2023-05-02T19:29:47.018Z,504.00
2023-05-02T19:30:46.926Z,504.00
2023-05-02T19:31:46.877Z,508.00
2023-05-02T19:32:46.761Z,510.00
2023-05-02T19:33:46.634Z,509.00
2023-05-02T19:34:46.535Z,505.00
2023-05-02T19:35:46.436Z,507.00
2023-05-02T19:36:46.357Z,507.00
2023-05-02T19:37:46.226Z,514.00
2023-05-02T19:38:46.131Z,507.00
2023-05-02T19:39:46.040Z,501.00
2023-05-02T19:40:45.939Z,503.00
2023-05-02T19:41:45.809Z,503.00
2023-05-02T19:42:45.715Z,510.00
2023-05-02T19:43:45.607Z,506.00
2023-05-02T19:44:45.496Z,509.00
2023-05-02T19:45:45.425Z,508.00
2023-05-02T19:46:45.300Z,510.00
2023-05-02T19:47:45.251Z,508.00
2023-05-02T19:48:45.102Z,511.00
2023-05-02T19:49:44.998Z,507.00
2023-05-02T19:50:44.886Z,513.00
2023-05-02T19:51:44.784Z,512.00
2023-05-02T19:52:44.696Z,505.00
2023-05-02T19:53:44.584Z,507.00
2023-05-02T19:54:44.501Z,507.00
2023-05-02T19:55:44.385Z,512.00
2023-05-02T19:56:44.297Z,503.00
2023-05-02T19:57:44.170Z,504.00
2023-05-02T19:58:44.084Z,508.00
2023-05-02T19:59:43.982Z,505.00
2023-05-02T20:00:43.870Z,513.00
2023-05-02T20:01:43.858Z,508.00
2023-05-02T20:02:43.793Z,506.00
2023-05-02T20:03:43.606Z,511.00
2023-05-02T20:04:43.489Z,511.00
2023-05-02T20:05:43.377Z,510.00
2023-05-02T20:06:43.327Z,506.00
2023-05-02T20:07:43.193Z,507.00
2023-05-02T20:08:43.105Z,507.00
2023-05-02T20:09:43.010Z,503.00
2023-05-02T20:10:42.906Z,511.00
2023-05-02T20:11:42.801Z,505.00
2023-05-02T20:12:42.695Z,507.00
2023-05-02T20:13:42.603Z,503.00
2023-05-02T20:14:42.507Z,502.00
2023-05-02T20:15:42.415Z,505.00
2023-05-02T20:16:42.361Z,511.00
2023-05-02T20:17:42.221Z,508.00
2023-05-02T20:18:42.117Z,506.00
2023-05-02T20:19:42.034Z,507.00
2023-05-02T20:20:41.890Z,502.00
2023-05-02T20:21:41.797Z,508.00
2023-05-02T20:22:41.710Z,502.00
2023-05-02T20:23:41.604Z,505.00
2023-05-02T20:24:41.506Z,516.00
2023-05-02T20:25:42.553Z,504.00
2023-05-02T20:26:41.318Z,511.00
2023-05-02T20:27:41.231Z,507.00
2023-05-02T20:28:41.133Z,508.00
2023-05-02T20:29:41.043Z,503.00
2023-05-02T20:30:40.948Z,503.00
2023-05-02T20:31:40.863Z,513.00
2023-05-02T20:32:40.765Z,507.00
2023-05-02T20:33:45.273Z,505.00
2023-05-02T20:34:41.504Z,505.00
2023-05-02T20:35:40.351Z,506.00
2023-05-02T20:36:40.179Z,507.00
2023-05-02T20:37:40.033Z,507.00
2023-05-02T20:38:39.893Z,503.00
2023-05-02T20:39:39.724Z,507.00
2023-05-02T20:40:39.544Z,507.00
2023-05-02T20:41:39.400Z,506.00
2023-05-02T20:42:39.311Z,508.00
2023-05-02T20:43:39.184Z,510.00
2023-05-02T20:44:39.089Z,504.00
2023-05-02T20:45:39.139Z,505.00
2023-05-02T20:46:38.830Z,505.00
2023-05-02T20:47:38.663Z,506.00
2023-05-02T20:48:38.456Z,508.00
2023-05-02T20:49:38.308Z,505.00
2023-05-02T20:50:38.142Z,505.00
2023-05-02T20:51:37.999Z,510.00
2023-05-02T20:52:37.832Z,509.00
2023-05-02T20:53:37.675Z,508.00
2023-05-02T20:54:37.537Z,501.00
2023-05-02T20:55:37.441Z,504.00
2023-05-02T20:56:37.340Z,508.00
2023-05-02T20:57:37.248Z,504.00
2023-05-02T20:58:37.159Z,500.00
2023-05-02T20:59:37.092Z,505.00
2023-05-02T21:00:36.936Z,502.00
2023-05-02T21:01:36.860Z,501.00
2023-05-02T21:02:36.799Z,503.00
2023-05-02T21:03:36.771Z,503.00
2023-05-02T21:04:36.565Z,503.00
2023-05-02T21:05:36.499Z,505.00
2023-05-02T21:06:36.412Z,507.00
2023-05-02T21:07:36.244Z,506.00
2023-05-02T21:08:36.102Z,502.00
2023-05-02T21:09:35.934Z,507.00
2023-05-02T21:10:35.794Z,504.00
2023-05-02T21:11:35.628Z,511.00
2023-05-02T21:12:35.461Z,500.00
2023-05-02T21:13:35.297Z,500.00
2023-05-02T21:14:35.140Z,507.00
2023-05-02T21:15:35.078Z,506.00
2023-05-02T21:16:34.983Z,506.00
2023-05-02T21:17:34.728Z,510.00
2023-05-02T21:18:34.566Z,508.00
2023-05-02T21:19:34.455Z,516.00
2023-05-02T21:20:34.337Z,514.00
2023-05-02T21:21:34.228Z,512.00
2023-05-02T21:22:34.130Z,515.00
2023-05-02T21:23:34.041Z,513.00
2023-05-02T21:24:33.977Z,509.00
2023-05-02T21:25:33.851Z,512.00
2023-05-02T21:26:33.790Z,508.00
2023-05-02T21:27:33.815Z,506.00
2023-05-02T21:28:33.608Z,509.00
2023-05-02T21:29:33.489Z,508.00
2023-05-02T21:30:33.409Z,507.00
2023-05-02T21:31:33.331Z,508.00
2023-05-02T21:32:33.276Z,507.00
2023-05-02T21:33:33.142Z,508.00
2023-05-02T21:34:33.009Z,513.00
2023-05-02T21:35:32.925Z,509.00
2023-05-02T21:36:32.828Z,510.00
2023-05-02T21:37:32.730Z,506.00
2023-05-02T21:38:32.618Z,505.00
2023-05-02T21:39:32.495Z,509.00
2023-05-02T21:40:32.404Z,507.00
2023-05-02T21:41:32.248Z,508.00
2023-05-02T21:42:32.113Z,514.00
2023-05-02T21:43:32.006Z,507.00
2023-05-02T21:44:31.879Z,509.00
2023-05-02T21:45:31.795Z,509.00
2023-05-02T21:46:31.704Z,515.00
2023-05-02T21:47:31.662Z,510.00
2023-05-02T21:48:31.498Z,507.00
2023-05-02T21:49:31.411Z,507.00
2023-05-02T21:50:31.322Z,505.00
2023-05-02T21:51:31.228Z,504.00
2023-05-02T21:52:31.119Z,508.00
2023-05-02T21:53:31.025Z,508.00
2023-05-02T21:54:30.954Z,510.00
2023-05-02T21:55:30.880Z,509.00
2023-05-02T21:56:30.739Z,510.00
2023-05-02T21:57:30.612Z,509.00
2023-05-02T21:58:30.515Z,516.00
2023-05-02T21:59:30.421Z,508.00
2023-05-02T22:00:30.325Z,511.00
2023-05-02T22:01:30.306Z,508.00
2023-05-02T22:02:30.160Z,507.00
2023-05-02T22:03:30.020Z,502.00
2023-05-02T22:04:29.852Z,506.00
2023-05-02T22:05:29.738Z,514.00
2023-05-02T22:06:29.609Z,507.00
2023-05-02T22:07:29.465Z,508.00
2023-05-02T22:08:29.344Z,510.00
2023-05-02T22:09:30.314Z,506.00
2023-05-02T22:10:29.048Z,506.00
2023-05-02T22:11:28.929Z,512.00
2023-05-02T22:12:28.838Z,506.00
2023-05-02T22:13:28.739Z,509.00
2023-05-02T22:14:37.539Z,512.00
2023-05-02T22:15:29.464Z,512.00
2023-05-02T22:16:28.346Z,512.00
2023-05-02T22:17:28.188Z,512.00
2023-05-02T22:18:27.984Z,512.00
2023-05-02T22:19:27.816Z,512.00
2023-05-02T22:20:27.661Z,512.00
2023-05-02T22:21:27.520Z,512.00
2023-05-02T22:22:27.340Z,514.00
2023-05-02T22:23:27.171Z,516.00
2023-05-02T22:24:27.030Z,510.00
2023-05-02T22:25:26.859Z,509.00
2023-05-02T22:26:26.706Z,510.00
2023-05-02T22:27:26.579Z,509.00
2023-05-02T22:28:26.468Z,507.00
2023-05-02T22:29:26.363Z,509.00
2023-05-02T22:30:26.223Z,502.00
2023-05-02T22:31:26.077Z,514.00
2023-05-02T22:32:25.980Z,512.00
2023-05-02T22:33:25.764Z,507.00
2023-05-02T22:34:25.592Z,509.00
2023-05-02T22:35:25.460Z,506.00
2023-05-02T22:36:25.313Z,504.00
2023-05-02T22:37:25.177Z,505.00
2023-05-02T22:38:25.019Z,503.00
2023-05-02T22:39:24.857Z,517.00
2023-05-02T22:40:24.714Z,506.00
2023-05-02T22:41:24.546Z,511.00
2023-05-02T22:42:24.419Z,508.00
2023-05-02T22:43:24.268Z,509.00
2023-05-02T22:44:24.115Z,506.00
2023-05-02T22:45:23.985Z,509.00
2023-05-02T22:46:23.843Z,502.00
2023-05-02T22:47:23.751Z,505.00
2023-05-02T22:48:23.529Z,508.00
2023-05-02T22:49:23.410Z,500.00
2023-05-02T22:50:23.273Z,504.00
2023-05-02T22:51:23.104Z,506.00
2023-05-02T22:52:22.968Z,506.00
2023-05-02T22:53:22.815Z,509.00